createdAt,value
2023-05-20T00:00:49.837Z,12.52
2023-05-20T00:03:17.627Z,13.95
2023-05-20T00:05:44.954Z,13.63
2023-05-20T00:08:12.204Z,13.23
2023-05-20T00:10:39.957Z,13.50
2023-05-20T00:13:07.381Z,13.63
2023-05-20T00:15:35.078Z,14.32
2023-05-20T00:18:04.395Z,15.10
2023-05-20T00:20:32.667Z,14.13
2023-05-20T00:22:59.694Z,13.23
2023-05-20T00:25:26.760Z,13.45
2023-05-20T00:27:53.692Z,12.75
2023-05-20T00:30:20.903Z,13.65
2023-05-20T00:32:48.147Z,14.93
2023-05-20T00:35:15.120Z,14.85
2023-05-20T00:37:42.007Z,14.88
2023-05-20T00:40:09.576Z,13.15
2023-05-20T00:42:36.533Z,14.15
2023-05-20T00:45:03.529Z,15.05
2023-05-20T00:47:36.875Z,14.55
2023-05-20T00:50:04.768Z,15.98
2023-05-20T00:52:33.130Z,15.38
2023-05-20T00:55:00.525Z,13.25
2023-05-20T00:57:27.952Z,14.50
2023-05-20T00:59:55.247Z,15.82
2023-05-20T01:02:23.547Z,16.30
2023-05-20T01:04:50.551Z,18.65
2023-05-20T01:07:18.848Z,20.20
2023-05-20T01:09:46.156Z,21.83
2023-05-20T01:12:29.839Z,22.08
2023-05-20T01:15:07.294Z,24.15
2023-05-20T01:17:46.977Z,24.20
2023-05-20T01:20:15.562Z,23.02
2023-05-20T01:22:55.956Z,24.83
2023-05-20T01:25:23.206Z,23.83
2023-05-20T01:27:51.251Z,26.80
2023-05-20T01:30:18.491Z,24.08
2023-05-20T01:32:53.210Z,24.88
2023-05-20T01:35:22.019Z,26.42
2023-05-20T01:37:51.122Z,24.98
2023-05-20T01:40:19.500Z,24.38
2023-05-20T01:42:53.318Z,23.77
2023-05-20T01:45:21.049Z,21.20
2023-05-20T01:47:48.459Z,22.58
2023-05-20T01:50:15.481Z,22.25
2023-05-20T01:52:42.581Z,20.38
2023-05-20T01:55:10.259Z,21.60
2023-05-20T01:57:37.288Z,21.20
2023-05-20T02:00:04.885Z,19.73
2023-05-20T02:02:31.862Z,18.63
2023-05-20T02:04:58.865Z,18.50
2023-05-20T02:07:25.830Z,20.38
2023-05-20T02:09:52.770Z,20.52
2023-05-20T02:12:19.721Z,18.30
2023-05-20T02:14:48.374Z,20.45
2023-05-20T02:17:17.585Z,19.33
2023-05-20T02:19:46.156Z,19.67
2023-05-20T02:22:14.282Z,19.58
2023-05-20T02:24:41.905Z,18.60
2023-05-20T02:27:08.922Z,17.58
2023-05-20T02:29:35.840Z,18.17
2023-05-20T02:32:02.982Z,16.80
2023-05-20T02:34:31.838Z,17.60
2023-05-20T02:36:58.974Z,17.23
2023-05-20T02:39:26.161Z,17.35
2023-05-20T02:41:53.131Z,18.67
2023-05-20T02:44:20.237Z,16.85
2023-05-20T02:46:47.219Z,18.15
2023-05-20T02:49:14.157Z,19.88
2023-05-20T02:51:41.164Z,18.08
2023-05-20T02:54:08.143Z,18.13
2023-05-20T02:56:35.149Z,18.75
2023-05-20T02:59:02.045Z,17.15
2023-05-20T03:01:29.804Z,19.75
2023-05-20T03:03:56.808Z,18.65
2023-05-20T03:06:23.824Z,17.50
2023-05-20T03:08:50.770Z,17.05
2023-05-20T03:11:17.706Z,16.98
2023-05-20T03:13:44.646Z,16.52
2023-05-20T03:16:13.356Z,17.38
2023-05-20T03:18:41.065Z,16.85
2023-05-20T03:21:08.163Z,15.27
2023-05-20T03:23:35.705Z,15.98
2023-05-20T03:26:03.698Z,17.58
2023-05-20T03:28:30.692Z,16.63
2023-05-20T03:30:57.648Z,15.65
2023-05-20T03:33:26.493Z,14.70
2023-05-20T03:35:53.461Z,17.02
2023-05-20T03:38:20.504Z,16.88
2023-05-20T03:40:47.429Z,14.38
2023-05-20T03:43:14.425Z,14.60
2023-05-20T03:45:41.436Z,16.88
2023-05-20T03:48:08.518Z,15.20
2023-05-20T03:50:35.908Z,16.95
2023-05-20T03:53:02.948Z,17.17
2023-05-20T03:55:29.899Z,14.80
2023-05-20T03:57:57.227Z,14.93
2023-05-20T04:00:24.404Z,15.00
2023-05-20T04:02:51.457Z,15.80
2023-05-20T04:05:18.788Z,15.32
2023-05-20T04:07:45.814Z,15.63
2023-05-20T04:10:12.984Z,14.02
2023-05-20T04:12:40.025Z,15.60
2023-05-20T04:15:07.992Z,15.20
2023-05-20T04:17:37.929Z,14.88
2023-05-20T04:20:07.479Z,14.32
2023-05-20T04:22:35.126Z,16.00
2023-05-20T04:25:03.948Z,16.88
2023-05-20T04:27:31.619Z,15.77
2023-05-20T04:29:58.996Z,17.98
2023-05-20T04:32:27.106Z,15.23
2023-05-20T04:34:56.326Z,16.83
2023-05-20T04:37:23.306Z,13.13
2023-05-20T04:39:51.365Z,16.45
2023-05-20T04:42:19.381Z,15.32
2023-05-20T04:44:46.457Z,16.52
2023-05-20T04:47:14.177Z,15.70
2023-05-20T04:49:41.552Z,15.57
2023-05-20T04:52:08.653Z,16.80
2023-05-20T04:54:35.701Z,14.77
2023-05-20T04:57:03.162Z,14.60
2023-05-20T04:59:30.114Z,16.33
2023-05-20T05:01:57.131Z,16.48
2023-05-20T05:04:24.154Z,17.35
2023-05-20T05:06:51.185Z,14.57
2023-05-20T05:09:18.133Z,12.93
2023-05-20T05:11:45.102Z,12.80
2023-05-20T05:14:12.114Z,11.95
2023-05-20T05:16:39.071Z,12.20
2023-05-20T05:19:06.309Z,12.90
2023-05-20T05:21:33.404Z,12.02
2023-05-20T05:24:00.384Z,11.30
2023-05-20T05:26:27.321Z,11.07
2023-05-20T05:28:55.680Z,11.05
2023-05-20T05:31:22.668Z,11.07
2023-05-20T05:33:49.694Z,9.55
2023-05-20T05:36:17.237Z,10.23
2023-05-20T05:38:44.784Z,9.88
2023-05-20T05:41:11.759Z,9.43
2023-05-20T05:43:38.695Z,9.23
2023-05-20T05:46:05.744Z,9.13
2023-05-20T05:48:32.997Z,9.27
2023-05-20T05:50:59.916Z,9.82
2023-05-20T05:53:27.164Z,8.20
2023-05-20T05:55:54.369Z,8.77
2023-05-20T05:58:21.338Z,9.68
2023-05-20T06:00:53.284Z,7.63
2023-05-20T06:03:20.392Z,8.93
2023-05-20T06:05:50.155Z,9.32
2023-05-20T06:08:17.319Z,8.02
2023-05-20T06:10:51.571Z,7.82
2023-05-20T06:13:19.007Z,8.75
2023-05-20T06:15:46.716Z,8.45
2023-05-20T06:18:13.733Z,7.82
2023-05-20T06:20:41.290Z,7.57
2023-05-20T06:23:08.280Z,7.00
2023-05-20T06:25:35.401Z,7.10
2023-05-20T06:28:02.597Z,6.63
2023-05-20T06:30:29.517Z,6.30
2023-05-20T06:32:56.491Z,6.45
2023-05-20T06:35:23.487Z,7.30
2023-05-20T06:37:50.513Z,7.30
2023-05-20T06:40:17.587Z,7.43
2023-05-20T06:42:44.602Z,7.22
2023-05-20T06:45:12.064Z,7.70
2023-05-20T06:47:39.018Z,7.03
2023-05-20T06:50:06.597Z,8.10
2023-05-20T06:52:33.560Z,7.05
2023-05-20T06:55:00.970Z,6.97
2023-05-20T06:57:27.977Z,7.80
2023-05-20T06:59:54.898Z,8.05
2023-05-20T07:02:22.822Z,7.47
2023-05-20T07:04:50.068Z,8.23
2023-05-20T07:07:17.448Z,9.27
2023-05-20T07:09:44.608Z,8.95
2023-05-20T07:12:11.556Z,8.60
2023-05-20T07:14:38.482Z,9.13
2023-05-20T07:17:06.208Z,8.10
2023-05-20T07:19:34.169Z,8.68
2023-05-20T07:22:01.311Z,8.25
2023-05-20T07:24:28.305Z,8.52
2023-05-20T07:26:55.270Z,8.35
2023-05-20T07:29:22.208Z,9.05
2023-05-20T07:31:49.160Z,7.85
2023-05-20T07:34:16.324Z,8.65
2023-05-20T07:36:44.011Z,8.07
2023-05-20T07:39:14.340Z,7.78
2023-05-20T07:41:42.405Z,8.13
2023-05-20T07:44:13.765Z,7.75
2023-05-20T07:46:42.129Z,7.65
2023-05-20T07:49:09.184Z,8.27
2023-05-20T07:51:36.514Z,9.30
2023-05-20T07:54:03.816Z,9.75
2023-05-20T07:56:30.917Z,8.95
2023-05-20T07:59:00.630Z,8.45
2023-05-20T08:01:27.773Z,9.35
2023-05-20T08:03:55.171Z,8.30
2023-05-20T08:06:24.521Z,7.03
2023-05-20T08:08:51.519Z,6.50
2023-05-20T08:11:18.453Z,6.22
2023-05-20T08:13:45.417Z,5.03
2023-05-20T08:16:12.383Z,5.60
2023-05-20T08:18:39.735Z,5.90
2023-05-20T08:21:10.295Z,4.85
2023-05-20T08:23:40.190Z,5.47
2023-05-20T08:26:07.997Z,4.85
2023-05-20T08:28:37.383Z,4.93
2023-05-20T08:31:04.648Z,4.38
2023-05-20T08:33:31.641Z,4.53
2023-05-20T08:35:58.667Z,4.65
2023-05-20T08:38:25.758Z,4.38
2023-05-20T08:40:57.663Z,5.38
2023-05-20T08:43:25.887Z,5.35
2023-05-20T08:45:53.087Z,5.05
2023-05-20T08:48:26.346Z,4.88
2023-05-20T08:50:54.052Z,5.65
2023-05-20T08:53:23.168Z,4.88
2023-05-20T08:56:03.846Z,4.50
2023-05-20T08:58:31.278Z,4.43
2023-05-20T09:01:01.566Z,4.20
2023-05-20T09:03:29.136Z,4.53
2023-05-20T09:06:06.021Z,4.25
2023-05-20T09:08:33.915Z,4.55
2023-05-20T09:11:01.392Z,4.18
2023-05-20T09:13:32.975Z,3.88
2023-05-20T09:16:02.376Z,3.63
2023-05-20T09:18:29.975Z,4.38
2023-05-20T09:20:57.356Z,4.32
2023-05-20T09:23:25.980Z,4.25
2023-05-20T09:25:53.241Z,4.20
2023-05-20T09:28:25.556Z,4.53
2023-05-20T09:30:59.126Z,4.60
2023-05-20T09:33:30.470Z,4.22
2023-05-20T09:36:10.796Z,4.70
2023-05-20T09:38:40.082Z,4.35
2023-05-20T09:41:12.742Z,4.85
2023-05-20T09:43:43.119Z,4.70
2023-05-20T09:46:11.160Z,5.50
2023-05-20T09:48:38.770Z,5.63
2023-05-20T09:51:08.266Z,6.07
2023-05-20T09:53:36.304Z,4.82
2023-05-20T09:56:03.986Z,5.82
2023-05-20T09:58:31.428Z,6.68
2023-05-20T10:00:58.572Z,6.63
2023-05-20T10:03:28.505Z,5.88
2023-05-20T10:06:36.864Z,7.07
2023-05-20T10:09:21.710Z,7.60
2023-05-20T10:11:57.771Z,7.18
2023-05-20T10:14:51.415Z,7.70
2023-05-20T10:17:30.591Z,7.65
2023-05-20T10:20:01.397Z,8.23
2023-05-20T10:22:30.499Z,8.45
2023-05-20T10:25:07.876Z,7.57
2023-05-20T10:27:48.299Z,8.07
2023-05-20T10:30:22.830Z,8.20
2023-05-20T10:32:57.183Z,8.25
2023-05-20T10:35:28.946Z,8.55
2023-05-20T10:38:10.687Z,8.98
2023-05-20T10:40:38.240Z,8.55
2023-05-20T10:43:14.457Z,9.45
2023-05-20T10:45:50.337Z,8.50
2023-05-20T10:48:31.883Z,9.48
2023-05-20T10:51:06.729Z,10.40
2023-05-20T10:53:42.535Z,9.07
2023-05-20T10:56:24.720Z,9.35
2023-05-20T10:58:54.006Z,7.93
2023-05-20T11:01:26.985Z,7.40
2023-05-20T11:03:58.524Z,8.00
2023-05-20T11:06:29.252Z,7.15
2023-05-20T11:08:56.776Z,7.38
2023-05-20T11:11:24.301Z,6.90
2023-05-20T11:13:53.312Z,6.97
2023-05-20T11:16:23.438Z,7.40
2023-05-20T11:18:51.034Z,7.15
2023-05-20T11:21:20.552Z,7.68
2023-05-20T11:23:47.602Z,7.55
2023-05-20T11:26:14.594Z,7.95
2023-05-20T11:28:41.649Z,7.20
2023-05-20T11:31:08.822Z,8.20
2023-05-20T11:33:35.903Z,7.72
2023-05-20T11:36:06.542Z,8.63
2023-05-20T11:38:38.491Z,7.65
2023-05-20T11:41:05.517Z,7.38
2023-05-20T11:43:34.306Z,7.40
2023-05-20T11:46:01.425Z,7.22
2023-05-20T11:48:28.516Z,7.43
2023-05-20T11:50:57.096Z,7.72
2023-05-20T11:53:25.588Z,6.88
2023-05-20T11:55:58.524Z,8.90
2023-05-20T11:58:29.760Z,7.72
2023-05-20T12:01:05.726Z,7.70
2023-05-20T12:03:40.941Z,8.95
2023-05-20T12:06:08.275Z,8.23
2023-05-20T12:08:35.217Z,8.23
2023-05-20T12:11:02.222Z,8.27
2023-05-20T12:13:29.274Z,8.30
2023-05-20T12:15:56.307Z,7.43
2023-05-20T12:18:23.392Z,8.73
2023-05-20T12:20:50.300Z,8.43
2023-05-20T12:23:17.296Z,7.68
2023-05-20T12:25:47.547Z,7.32
2023-05-20T12:28:14.862Z,7.32
2023-05-20T12:30:42.061Z,7.00
2023-05-20T12:33:09.619Z,6.90
2023-05-20T12:35:39.757Z,7.00
2023-05-20T12:38:07.595Z,6.60
2023-05-20T12:40:35.793Z,6.97
2023-05-20T12:43:04.879Z,7.10
2023-05-20T12:45:32.068Z,6.97
2023-05-20T12:47:59.628Z,7.47
2023-05-20T12:50:27.530Z,6.95
2023-05-20T12:52:54.511Z,6.90
2023-05-20T12:55:21.591Z,5.88
2023-05-20T12:57:49.053Z,5.88
2023-05-20T13:00:16.896Z,6.13
2023-05-20T13:02:44.015Z,5.75
2023-05-20T13:05:11.722Z,5.43
2023-05-20T13:07:38.888Z,5.70
2023-05-20T13:10:07.747Z,6.38
2023-05-20T13:12:35.649Z,5.55
2023-05-20T13:15:03.440Z,5.93
2023-05-20T13:17:30.786Z,5.90
2023-05-20T13:19:58.597Z,6.00
2023-05-20T13:22:25.526Z,7.00
2023-05-20T13:24:52.523Z,7.15
2023-05-20T13:27:19.479Z,6.53
2023-05-20T13:29:46.652Z,6.35
2023-05-20T13:32:13.632Z,6.50
2023-05-20T13:34:40.736Z,6.63
2023-05-20T13:37:07.823Z,6.82
2023-05-20T13:39:35.016Z,6.68
2023-05-20T13:42:02.102Z,6.25
2023-05-20T13:44:30.603Z,6.32
2023-05-20T13:46:58.259Z,6.13
2023-05-20T13:49:25.925Z,6.32
2023-05-20T13:51:52.969Z,6.05
2023-05-20T13:54:21.922Z,5.90
2023-05-20T13:56:49.340Z,6.25
2023-05-20T13:59:16.529Z,6.18
2023-05-20T14:01:45.660Z,6.10
2023-05-20T14:04:13.484Z,5.60
2023-05-20T14:06:40.822Z,6.40
2023-05-20T14:09:09.511Z,6.45
2023-05-20T14:11:37.337Z,6.63
2023-05-20T14:14:04.449Z,6.55
2023-05-20T14:16:32.862Z,6.03
2023-05-20T14:19:00.108Z,5.93
2023-05-20T14:21:27.100Z,6.30
2023-05-20T14:23:54.115Z,5.55
2023-05-20T14:26:22.022Z,6.80
2023-05-20T14:28:49.347Z,6.13
2023-05-20T14:31:16.691Z,6.43
2023-05-20T14:33:43.754Z,5.35
2023-05-20T14:36:11.590Z,6.00
2023-05-20T14:38:38.724Z,5.68
2023-05-20T14:41:05.765Z,4.90
2023-05-20T14:43:32.952Z,6.40
2023-05-20T14:46:00.164Z,5.65
2023-05-20T14:48:27.114Z,5.70
2023-05-20T14:50:54.233Z,6.00
2023-05-20T14:53:21.629Z,5.60
2023-05-20T14:55:48.748Z,5.50
2023-05-20T14:58:15.756Z,5.15
2023-05-20T15:00:42.794Z,5.20
2023-05-20T15:03:09.915Z,5.30
2023-05-20T15:05:37.108Z,5.20
2023-05-20T15:08:04.383Z,5.15
2023-05-20T15:10:31.773Z,4.72
2023-05-20T15:12:58.752Z,4.63
2023-05-20T15:15:25.980Z,5.07
2023-05-20T15:17:53.011Z,4.95
2023-05-20T15:20:20.039Z,5.07
2023-05-20T15:22:48.438Z,5.25
2023-05-20T15:25:15.659Z,5.30
2023-05-20T15:27:43.264Z,4.90
2023-05-20T15:30:11.409Z,5.32
2023-05-20T15:32:39.941Z,4.50
2023-05-20T15:35:07.722Z,4.97
2023-05-20T15:37:34.953Z,4.75
2023-05-20T15:40:02.121Z,4.57
2023-05-20T15:42:29.144Z,5.00
2023-05-20T15:44:56.290Z,4.85
2023-05-20T15:47:23.334Z,5.32
2023-05-20T15:49:50.349Z,4.80
2023-05-20T15:52:17.357Z,4.93
2023-05-20T15:54:44.278Z,4.82
2023-05-20T15:57:11.254Z,4.85
2023-05-20T15:59:38.238Z,5.00
2023-05-20T16:02:05.252Z,4.68
2023-05-20T16:04:32.873Z,5.13
2023-05-20T16:06:59.961Z,5.00
2023-05-20T16:09:26.938Z,5.15
2023-05-20T16:11:56.693Z,4.80
2023-05-20T16:14:23.864Z,5.32
2023-05-20T16:16:50.882Z,5.32
2023-05-20T16:19:17.978Z,4.97
2023-05-20T16:21:45.168Z,4.80
2023-05-20T16:24:12.633Z,5.07
2023-05-20T16:26:39.716Z,5.00
2023-05-20T16:29:06.869Z,4.90
2023-05-20T16:31:33.972Z,4.60
2023-05-20T16:34:00.943Z,4.93
2023-05-20T16:36:27.944Z,5.15
2023-05-20T16:38:54.881Z,4.80
2023-05-20T16:41:23.109Z,5.47
2023-05-20T16:43:50.105Z,5.40
2023-05-20T16:46:17.206Z,4.97
2023-05-20T16:48:44.208Z,4.88
2023-05-20T16:51:11.458Z,5.00
2023-05-20T16:53:38.498Z,5.13
2023-05-20T16:56:08.476Z,4.93
2023-05-20T16:58:35.916Z,4.90
2023-05-20T17:01:02.938Z,4.60
2023-05-20T17:03:29.973Z,4.85
2023-05-20T17:05:57.464Z,4.82
2023-05-20T17:08:24.459Z,3.80
2023-05-20T17:10:54.231Z,4.10
2023-05-20T17:13:21.891Z,3.83
2023-05-20T17:15:48.867Z,4.22
2023-05-20T17:18:16.933Z,4.18
2023-05-20T17:20:43.970Z,4.10
2023-05-20T17:23:11.009Z,3.60
2023-05-20T17:25:38.169Z,3.97
2023-05-20T17:28:05.256Z,3.85
2023-05-20T17:30:32.347Z,3.65
2023-05-20T17:32:59.520Z,3.70
2023-05-20T17:35:26.697Z,3.25
2023-05-20T17:37:54.016Z,3.20
2023-05-20T17:40:21.585Z,3.30
2023-05-20T17:42:48.704Z,3.15
2023-05-20T17:45:16.454Z,3.30
2023-05-20T17:47:43.445Z,2.70
2023-05-20T17:50:11.197Z,2.90
2023-05-20T17:52:38.283Z,2.70
2023-05-20T17:55:06.907Z,2.75
2023-05-20T17:57:34.540Z,2.78
2023-05-20T18:00:02.503Z,2.65
2023-05-20T18:02:29.644Z,2.80
2023-05-20T18:04:56.649Z,2.42
2023-05-20T18:07:23.657Z,2.55
2023-05-20T18:09:50.794Z,2.40
2023-05-20T18:12:17.832Z,2.83
2023-05-20T18:14:45.760Z,2.40
2023-05-20T18:17:12.781Z,2.80
2023-05-20T18:19:39.805Z,2.47
2023-05-20T18:22:07.505Z,3.25
2023-05-20T18:24:34.550Z,2.22
2023-05-20T18:27:01.630Z,2.33
2023-05-20T18:29:28.863Z,2.33
2023-05-20T18:31:55.922Z,2.50
2023-05-20T18:34:22.963Z,2.28
2023-05-20T18:36:50.129Z,2.15
2023-05-20T18:39:20.765Z,2.33
2023-05-20T18:41:48.768Z,1.90
2023-05-20T18:44:19.957Z,2.17
2023-05-20T18:46:46.970Z,2.17
2023-05-20T18:49:14.022Z,2.10
2023-05-20T18:51:41.580Z,1.70
2023-05-20T18:54:08.784Z,1.90
2023-05-20T18:56:36.369Z,1.98
2023-05-20T18:59:03.365Z,1.95
2023-05-20T19:01:30.641Z,1.92
2023-05-20T19:03:57.640Z,2.28
2023-05-20T19:06:24.703Z,2.15
2023-05-20T19:08:51.657Z,2.00
2023-05-20T19:11:18.795Z,2.10
2023-05-20T19:13:45.730Z,1.80
2023-05-20T19:16:12.774Z,2.20
2023-05-20T19:18:39.864Z,2.00
2023-05-20T19:21:06.778Z,2.00
2023-05-20T19:23:33.841Z,2.13
2023-05-20T19:26:00.969Z,1.92
2023-05-20T19:28:28.109Z,1.92
2023-05-20T19:30:55.076Z,2.00
2023-05-20T19:33:22.267Z,1.80
2023-05-20T19:35:49.236Z,1.85
2023-05-20T19:38:16.597Z,2.13
2023-05-20T19:40:44.862Z,1.58
2023-05-20T19:43:12.040Z,1.73
2023-05-20T19:45:39.169Z,1.77
2023-05-20T19:48:06.992Z,1.77
2023-05-20T19:50:34.481Z,2.20
2023-05-20T19:53:06.408Z,2.10
2023-05-20T19:55:36.507Z,1.80
2023-05-20T19:58:31.491Z,1.90
2023-05-20T20:00:58.752Z,1.70
2023-05-20T20:03:25.874Z,1.70
2023-05-20T20:05:53.364Z,2.05
2023-05-20T20:08:20.297Z,1.98
2023-05-20T20:10:47.306Z,2.10
2023-05-20T20:13:14.806Z,2.20
2023-05-20T20:15:41.740Z,2.15
2023-05-20T20:18:08.788Z,2.80
2023-05-20T20:20:40.195Z,2.97
2023-05-20T20:23:08.764Z,2.70
2023-05-20T20:25:39.701Z,2.40
2023-05-20T20:28:09.049Z,2.70
2023-05-20T20:30:38.930Z,2.30
2023-05-20T20:33:08.869Z,2.10
2023-05-20T20:35:37.241Z,2.28
2023-05-20T20:38:10.755Z,2.17
2023-05-20T20:40:42.137Z,2.00
2023-05-20T20:43:11.160Z,2.00
2023-05-20T20:45:38.306Z,2.10
2023-05-20T20:48:08.259Z,1.85
2023-05-20T20:50:36.638Z,1.88
2023-05-20T20:53:03.698Z,2.22
2023-05-20T20:55:30.932Z,2.40
2023-05-20T20:57:58.617Z,2.60
2023-05-20T21:00:27.182Z,2.45
2023-05-20T21:02:54.365Z,2.15
2023-05-20T21:05:21.834Z,2.85
2023-05-20T21:07:52.750Z,2.72
2023-05-20T21:10:19.835Z,3.20
2023-05-20T21:12:46.895Z,3.67
2023-05-20T21:15:15.233Z,3.85
2023-05-20T21:17:42.383Z,3.20
2023-05-20T21:20:10.328Z,3.67
2023-05-20T21:22:37.269Z,2.70
2023-05-20T21:25:04.681Z,2.90
2023-05-20T21:27:31.667Z,2.20
2023-05-20T21:29:58.666Z,2.28
2023-05-20T21:32:25.772Z,2.40
2023-05-20T21:34:52.770Z,2.35
2023-05-20T21:37:19.681Z,2.70
2023-05-20T21:39:46.651Z,2.80
2023-05-20T21:42:13.658Z,3.10
2023-05-20T21:44:40.710Z,2.75
2023-05-20T21:47:07.708Z,2.80
2023-05-20T21:49:34.756Z,2.90
2023-05-20T21:52:01.780Z,2.53
2023-05-20T21:54:28.730Z,3.08
2023-05-20T21:56:55.720Z,3.00
2023-05-20T21:59:22.627Z,3.33
2023-05-20T22:01:51.064Z,2.92
2023-05-20T22:04:19.360Z,3.10
2023-05-20T22:06:46.341Z,2.10
2023-05-20T22:09:13.287Z,2.42
2023-05-20T22:11:40.232Z,2.20
2023-05-20T22:14:07.241Z,2.47
2023-05-20T22:16:34.256Z,2.20
2023-05-20T22:19:02.862Z,2.30
2023-05-20T22:21:32.105Z,2.00
2023-05-20T22:24:01.224Z,2.08
2023-05-20T22:26:28.731Z,2.10
2023-05-20T22:28:55.647Z,2.13
2023-05-20T22:31:22.655Z,2.13
2023-05-20T22:33:49.820Z,2.08
2023-05-20T22:36:16.815Z,2.30
2023-05-20T22:38:43.825Z,2.40
2023-05-20T22:41:11.076Z,2.15
2023-05-20T22:43:38.004Z,2.42
2023-05-20T22:46:05.176Z,2.50
2023-05-20T22:48:32.334Z,2.38
2023-05-20T22:50:59.234Z,2.20
2023-05-20T22:53:26.504Z,2.40
2023-05-20T22:55:53.600Z,2.72
2023-05-20T22:58:20.528Z,2.92
2023-05-20T23:00:47.503Z,3.03
2023-05-20T23:03:14.540Z,2.90
2023-05-20T23:05:41.799Z,2.80
2023-05-20T23:08:08.747Z,3.67
2023-05-20T23:10:35.726Z,6.72
2023-05-20T23:13:02.862Z,8.50
2023-05-20T23:15:31.361Z,10.80
2023-05-20T23:17:58.866Z,11.15
2023-05-20T23:20:26.070Z,10.48
2023-05-20T23:22:53.008Z,11.15
2023-05-20T23:25:20.064Z,10.88
2023-05-20T23:27:47.046Z,11.35
2023-05-20T23:30:14.053Z,10.43
2023-05-20T23:32:41.077Z,10.85
2023-05-20T23:35:11.883Z,10.80
2023-05-20T23:37:39.153Z,10.50
2023-05-20T23:40:09.724Z,10.15
2023-05-20T23:42:37.047Z,8.65
2023-05-20T23:45:06.397Z,9.20
2023-05-20T23:47:34.070Z,9.60
2023-05-20T23:50:01.828Z,11.07
2023-05-20T23:52:28.844Z,11.68
2023-05-20T23:54:56.827Z,11.82
2023-05-20T23:57:23.739Z,11.70
2023-05-20T23:59:51.065Z,12.20
